Time;durP1;ratioP1;P1;durP2;ratioP2;P2;SDS_P1;SDS_P2;PMS_P1;PMS_P2;Temp;Humidity;BMP_temperature;BMP_pressure;BME280_temperature;BME280_humidity;BME280_pressure;Samples;Min_cycle;Max_cycle;Signal;HPM_P1;HPM_P2
2023/02/24 00:01:59;;;;;;;14.00;1.90;;;;;;;;;;6162613;23;20497;-85
2023/02/24 00:04:33;;;;;;;10.07;1.90;;;;;;;;;;6126669;23;20402;-85
2023/02/24 00:07:06;;;;;;;12.23;2.20;;;;;;;;;;6126333;23;20387;-86
2023/02/24 00:09:36;;;;;;;12.48;1.83;;;;;;;;;;6127489;23;20375;-85
2023/02/24 00:12:11;;;;;;;9.63;1.45;;;;;;;;;;6151205;23;20385;-85
2023/02/24 00:14:45;;;;;;;6.65;1.50;;;;;;;;;;6162982;23;20378;-85
2023/02/24 00:17:15;;;;;;;8.65;1.38;;;;;;;;;;6126741;23;20711;-86
2023/02/24 00:19:48;;;;;;;9.13;1.40;;;;;;;;;;6151056;23;20386;-85
2023/02/24 00:22:21;;;;;;;7.97;1.17;;;;;;;;;;6126995;23;20390;-85
2023/02/24 00:24:55;;;;;;;8.07;1.13;;;;;;;;;;6127312;23;20395;-86
2023/02/24 00:27:23;;;;;;;5.73;1.10;;;;;;;;;;6153146;23;20367;-86
2023/02/24 00:29:50;;;;;;;6.90;1.07;;;;;;;;;;6150791;23;20724;-85
2023/02/24 00:32:18;;;;;;;8.00;1.10;;;;;;;;;;6125981;23;20386;-86
2023/02/24 00:34:51;;;;;;;10.00;1.10;;;;;;;;;;6126010;23;20708;-85
2023/02/24 00:37:24;;;;;;;6.55;0.98;;;;;;;;;;6150533;23;20383;-85
2023/02/24 00:40:09;;;;;;;7.25;0.90;;;;;;;;;;6150584;23;20383;-85
2023/02/24 00:42:42;;;;;;;7.63;1.05;;;;;;;;;;6125947;23;20387;-86
2023/02/24 00:45:15;;;;;;;6.82;1.13;;;;;;;;;;6150710;23;20391;-85
2023/02/24 00:47:43;;;;;;;7.32;1.17;;;;;;;;;;6152810;23;20375;-85
2023/02/24 00:50:12;;;;;;;6.53;1.10;;;;;;;;;;6126827;23;20383;-85
2023/02/24 00:52:42;;;;;;;9.77;1.55;;;;;;;;;;6125930;23;20382;-85
2023/02/24 00:55:13;;;;;;;6.35;0.82;;;;;;;;;;6126770;23;20393;-85
2023/02/24 00:57:49;;;;;;;7.47;1.00;;;;;;;;;;6162288;23;20704;-86
2023/02/24 01:00:19;;;;;;;7.60;0.85;;;;;;;;;;6126497;23;20383;-85
2023/02/24 01:02:52;;;;;;;11.02;1.20;;;;;;;;;;6162455;23;20387;-85
2023/02/24 01:05:26;;;;;;;6.07;1.30;;;;;;;;;;6127636;23;20780;-85
2023/02/24 01:08:01;;;;;;;6.20;1.08;;;;;;;;;;6126080;23;20386;-85
2023/02/24 01:10:35;;;;;;;6.88;1.02;;;;;;;;;;6150835;23;20383;-85
2023/02/24 01:13:07;;;;;;;7.65;1.05;;;;;;;;;;6125926;23;20375;-85
2023/02/24 01:15:40;;;;;;;3.92;0.80;;;;;;;;;;6163398;23;20375;-85
2023/02/24 01:18:13;;;;;;;7.40;1.10;;;;;;;;;;6164963;23;20370;-85
2023/02/24 01:20:47;;;;;;;9.75;1.00;;;;;;;;;;6156680;23;20383;-85
2023/02/24 01:23:14;;;;;;;5.57;1.10;;;;;;;;;;6127251;23;20423;-85
2023/02/24 01:25:47;;;;;;;7.28;1.20;;;;;;;;;;6127877;23;20386;-85
2023/02/24 01:28:20;;;;;;;6.28;1.02;;;;;;;;;;6129208;23;20379;-85
2023/02/24 01:30:48;;;;;;;6.05;1.10;;;;;;;;;;6128316;23;20882;-85
2023/02/24 01:33:24;;;;;;;7.65;0.98;;;;;;;;;;6127619;23;20381;-85
2023/02/24 01:35:56;;;;;;;6.20;1.00;;;;;;;;;;6152588;23;20386;-85
2023/02/24 01:38:24;;;;;;;5.97;1.00;;;;;;;;;;6128313;23;20387;-85
2023/02/24 01:40:58;;;;;;;6.82;1.10;;;;;;;;;;6164211;23;20914;-85
2023/02/24 01:43:32;;;;;;;6.10;0.90;;;;;;;;;;6127549;23;20382;-85
2023/02/24 01:46:00;;;;;;;4.90;0.93;;;;;;;;;;6128626;23;20379;-86
2023/02/24 01:48:28;;;;;;;6.23;1.10;;;;;;;;;;6128081;23;20689;-85
2023/02/24 01:50:56;;;;;;;6.37;1.20;;;;;;;;;;6154398;23;20388;-85
2023/02/24 01:53:24;;;;;;;7.22;0.90;;;;;;;;;;6154603;23;20359;-85
2023/02/24 01:55:53;;;;;;;4.55;0.95;;;;;;;;;;6127505;23;20390;-86
2023/02/24 01:58:24;;;;;;;6.55;1.00;;;;;;;;;;6128155;23;20387;-85
2023/02/24 02:00:57;;;;;;;8.60;1.30;;;;;;;;;;6152276;23;20441;-85
2023/02/24 02:03:33;;;;;;;10.10;1.33;;;;;;;;;;6151985;23;20383;-86
2023/02/24 02:06:05;;;;;;;7.68;1.00;;;;;;;;;;6127441;23;20391;-86
2023/02/24 02:08:39;;;;;;;8.30;1.25;;;;;;;;;;6127829;23;20390;-85
2023/02/24 02:11:07;;;;;;;9.63;1.33;;;;;;;;;;6128010;23;20390;-85
2023/02/24 02:13:43;;;;;;;7.38;1.20;;;;;;;;;;6127678;23;20388;-85
2023/02/24 02:16:30;;;;;;;6.20;1.05;;;;;;;;;;6163905;23;20843;-84
2023/02/24 02:19:17;;;;;;;7.30;1.15;;;;;;;;;;6154269;23;20444;-85
2023/02/24 02:22:12;;;;;;;4.13;0.80;;;;;;;;;;6163550;23;20385;-85
2023/02/24 02:24:47;;;;;;;3.17;0.88;;;;;;;;;;6127678;23;20379;-85
2023/02/24 02:27:35;;;;;;;12.27;1.45;;;;;;;;;;6163575;23;20382;-85
2023/02/24 02:30:20;;;;;;;7.20;1.15;;;;;;;;;;6164087;23;20374;-85
2023/02/24 02:33:20;;;;;;;5.30;0.90;;;;;;;;;;6164085;23;20367;-86
2023/02/24 02:35:59;;;;;;;9.82;1.00;;;;;;;;;;6151969;23;20662;-85
2023/02/24 02:38:34;;;;;;;6.32;1.00;;;;;;;;;;6164147;23;20378;-86
2023/02/24 02:41:12;;;;;;;8.30;1.40;;;;;;;;;;6128103;23;20379;-85
2023/02/24 02:43:42;;;;;;;9.20;1.48;;;;;;;;;;6127722;23;20390;-85
2023/02/24 02:46:17;;;;;;;9.43;1.50;;;;;;;;;;6127196;23;20709;-85
2023/02/24 02:48:48;;;;;;;8.50;1.00;;;;;;;;;;6127870;23;20385;-85
2023/02/24 02:51:21;;;;;;;7.38;1.17;;;;;;;;;;6159960;23;20367;-84
2023/02/24 02:53:59;;;;;;;8.35;1.60;;;;;;;;;;6151971;23;20386;-85
2023/02/24 02:56:30;;;;;;;9.57;1.25;;;;;;;;;;6126812;23;20378;-85
2023/02/24 02:58:59;;;;;;;11.23;1.30;;;;;;;;;;6127738;23;20382;-85
2023/02/24 03:01:35;;;;;;;10.07;1.40;;;;;;;;;;6127723;23;20394;-85
2023/02/24 03:04:04;;;;;;;8.48;1.30;;;;;;;;;;6153758;23;20379;-85
2023/02/24 03:06:42;;;;;;;9.20;1.27;;;;;;;;;;6127176;23;20379;-85
2023/02/24 03:09:18;;;;;;;11.48;1.48;;;;;;;;;;6151922;23;20915;-85
2023/02/24 03:11:54;;;;;;;10.35;1.30;;;;;;;;;;6127631;23;20394;-85
2023/02/24 03:14:29;;;;;;;9.90;1.30;;;;;;;;;;6127163;23;20375;-85
2023/02/24 03:17:03;;;;;;;6.57;1.10;;;;;;;;;;6127722;23;20387;-85
2023/02/24 03:19:36;;;;;;;9.15;1.33;;;;;;;;;;6126305;23;20382;-85
2023/02/24 03:22:11;;;;;;;10.35;1.50;;;;;;;;;;6163845;23;20362;-85
2023/02/24 03:24:44;;;;;;;8.40;1.30;;;;;;;;;;6127067;23;20371;-85
2023/02/24 03:27:24;;;;;;;7.35;1.25;;;;;;;;;;6127543;23;20386;-85
2023/02/24 03:30:00;;;;;;;9.55;1.40;;;;;;;;;;6126859;23;20390;-85
2023/02/24 03:32:49;;;;;;;9.85;1.58;;;;;;;;;;6126858;23;20379;-85
2023/02/24 03:35:20;;;;;;;8.20;1.20;;;;;;;;;;6126202;23;20382;-85
2023/02/24 03:37:58;;;;;;;11.20;1.20;;;;;;;;;;6151069;23;20386;-85
2023/02/24 03:40:27;;;;;;;7.20;1.10;;;;;;;;;;6127031;23;20383;-84
2023/02/24 03:43:04;;;;;;;8.40;1.20;;;;;;;;;;6163167;23;20379;-86
2023/02/24 03:45:34;;;;;;;10.15;1.23;;;;;;;;;;6127562;23;20394;-85
2023/02/24 03:48:07;;;;;;;5.13;1.20;;;;;;;;;;6126192;23;20844;-86
2023/02/24 03:50:36;;;;;;;10.45;1.70;;;;;;;;;;6153817;23;20382;-85
2023/02/24 03:53:37;;;;;;;7.75;1.17;;;;;;;;;;6151866;23;20409;-85
2023/02/24 03:56:16;;;;;;;9.07;1.58;;;;;;;;;;6125461;23;20390;-85
2023/02/24 03:58:51;;;;;;;12.17;1.50;;;;;;;;;;6127040;23;20709;-86
2023/02/24 04:01:24;;;;;;;7.68;1.30;;;;;;;;;;6127010;23;20379;-85
2023/02/24 04:03:56;;;;;;;10.07;1.50;;;;;;;;;;6126977;23;20390;-84
2023/02/24 04:06:41;;;;;;;5.97;1.10;;;;;;;;;;6127767;23;20705;-85
2023/02/24 04:09:19;;;;;;;7.03;1.40;;;;;;;;;;6127691;23;20573;-85
2023/02/24 04:11:58;;;;;;;8.93;1.40;;;;;;;;;;6126807;23;20386;-85
2023/02/24 04:14:29;;;;;;;11.75;1.33;;;;;;;;;;6126798;23;20386;-85
2023/02/24 04:17:09;;;;;;;10.50;1.25;;;;;;;;;;6150995;23;20375;-85
2023/02/24 04:19:43;;;;;;;8.15;1.45;;;;;;;;;;6126705;23;20383;-85
2023/02/24 04:22:13;;;;;;;9.27;1.20;;;;;;;;;;6126841;23;20401;-85
2023/02/24 04:24:50;;;;;;;8.33;1.40;;;;;;;;;;6151026;23;20398;-85
2023/02/24 04:27:24;;;;;;;7.20;1.10;;;;;;;;;;6151189;23;20383;-85
2023/02/24 04:30:10;;;;;;;6.13;1.35;;;;;;;;;;6150807;23;20390;-85
2023/02/24 04:32:43;;;;;;;8.70;1.38;;;;;;;;;;6162917;23;20375;-85
2023/02/24 04:35:21;;;;;;;6.93;1.38;;;;;;;;;;6126529;23;20375;-85
2023/02/24 04:37:50;;;;;;;8.32;1.10;;;;;;;;;;6150678;23;20393;-85
2023/02/24 04:40:26;;;;;;;8.50;1.40;;;;;;;;;;6151135;23;20382;-85
2023/02/24 04:42:54;;;;;;;6.63;1.10;;;;;;;;;;6152633;23;20363;-85
2023/02/24 04:45:23;;;;;;;8.75;1.30;;;;;;;;;;6126617;23;20386;-85
2023/02/24 04:47:55;;;;;;;5.93;1.10;;;;;;;;;;6152813;23;20363;-85
2023/02/24 04:50:28;;;;;;;10.30;1.50;;;;;;;;;;6150440;23;20392;-85
2023/02/24 04:53:02;;;;;;;9.38;1.42;;;;;;;;;;6150800;23;20887;-85
2023/02/24 04:55:38;;;;;;;8.65;1.55;;;;;;;;;;6150344;23;20379;-85
2023/02/24 04:58:07;;;;;;;6.78;1.48;;;;;;;;;;6126025;23;20824;-86
2023/02/24 05:00:35;;;;;;;10.85;1.70;;;;;;;;;;6150411;23;20398;-87
2023/02/24 05:03:04;;;;;;;8.75;1.10;;;;;;;;;;6126044;23;20394;-85
2023/02/24 05:05:37;;;;;;;7.43;1.13;;;;;;;;;;6126612;23;20387;-85
2023/02/24 05:08:11;;;;;;;7.67;1.13;;;;;;;;;;6162302;23;20379;-85
2023/02/24 05:10:41;;;;;;;10.38;1.33;;;;;;;;;;6127435;23;20394;-85
2023/02/24 05:13:12;;;;;;;8.38;1.25;;;;;;;;;;6126361;23;20701;-85
2023/02/24 05:15:46;;;;;;;10.25;1.45;;;;;;;;;;6162726;23;20837;-84
2023/02/24 05:18:15;;;;;;;8.40;1.33;;;;;;;;;;6153051;23;20702;-85
2023/02/24 05:23:32;;;;;;;7.32;1.05;;;;;;;;;;6162284;23;20359;-84
2023/02/24 05:26:08;;;;;;;5.38;1.05;;;;;;;;;;6162735;23;21157;-85
2023/02/24 05:28:37;;;;;;;5.38;1.10;;;;;;;;;;6126509;23;20386;-84
2023/02/24 05:31:07;;;;;;;10.15;1.30;;;;;;;;;;6125742;23;20390;-85
2023/02/24 05:33:35;;;;;;;4.93;1.02;;;;;;;;;;6126361;23;20401;-85
2023/02/24 05:36:05;;;;;;;4.13;1.00;;;;;;;;;;6125854;23;20844;-85
2023/02/24 05:38:38;;;;;;;7.20;1.20;;;;;;;;;;6151071;23;20382;-85
2023/02/24 05:41:13;;;;;;;8.20;1.20;;;;;;;;;;6126345;23;20387;-85
2023/02/24 05:43:52;;;;;;;5.90;1.17;;;;;;;;;;6125829;23;20880;-85
2023/02/24 05:46:27;;;;;;;9.27;1.17;;;;;;;;;;6126180;23;20725;-85
2023/02/24 05:49:01;;;;;;;7.03;1.20;;;;;;;;;;6162303;23;20375;-84
2023/02/24 05:51:34;;;;;;;9.90;1.38;;;;;;;;;;6152857;23;20379;-84
2023/02/24 05:54:03;;;;;;;5.97;1.37;;;;;;;;;;6125576;23;20387;-85
2023/02/24 05:56:33;;;;;;;7.32;1.13;;;;;;;;;;6150806;23;20847;-85
2023/02/24 05:59:09;;;;;;;6.07;1.20;;;;;;;;;;6150423;23;20876;-85
2023/02/24 06:01:40;;;;;;;6.47;1.20;;;;;;;;;;6148985;23;20387;-85
2023/02/24 06:04:19;;;;;;;9.90;1.40;;;;;;;;;;6124363;23;20383;-85
2023/02/24 06:06:51;;;;;;;8.33;1.60;;;;;;;;;;6151369;23;20772;-85
2023/02/24 06:09:21;;;;;;;5.18;1.00;;;;;;;;;;6164165;23;20359;-85
2023/02/24 06:11:51;;;;;;;9.50;1.52;;;;;;;;;;6164473;23;20374;-85
2023/02/24 06:14:24;;;;;;;9.68;1.58;;;;;;;;;;6127476;23;20405;-85
2023/02/24 06:16:52;;;;;;;6.70;1.33;;;;;;;;;;6151799;23;20386;-84
2023/02/24 06:19:19;;;;;;;7.03;1.30;;;;;;;;;;6127158;23;21105;-85
2023/02/24 06:21:52;;;;;;;7.03;1.52;;;;;;;;;;6163928;23;20386;-85
2023/02/24 06:24:25;;;;;;;10.88;1.55;;;;;;;;;;6127248;23;20393;-85
2023/02/24 06:27:01;;;;;;;7.63;1.42;;;;;;;;;;6127245;23;20386;-85
2023/02/24 06:29:35;;;;;;;7.03;1.30;;;;;;;;;;6151996;23;21008;-85
2023/02/24 06:32:07;;;;;;;6.90;1.40;;;;;;;;;;6127475;23;20379;-85
2023/02/24 06:34:35;;;;;;;8.50;1.37;;;;;;;;;;6151339;23;20712;-84
2023/02/24 06:37:03;;;;;;;9.50;1.52;;;;;;;;;;6126499;23;20409;-84
2023/02/24 06:39:36;;;;;;;6.80;1.67;;;;;;;;;;6127574;23;20387;-84
2023/02/24 06:42:07;;;;;;;8.85;1.60;;;;;;;;;;6153965;23;20693;-85
2023/02/24 06:44:41;;;;;;;9.05;1.70;;;;;;;;;;6151953;23;20387;-85
2023/02/24 06:47:12;;;;;;;7.05;1.52;;;;;;;;;;6151864;23;20407;-84
2023/02/24 06:49:40;;;;;;;8.60;1.92;;;;;;;;;;6126355;23;20383;-84
2023/02/24 06:52:10;;;;;;;10.18;1.88;;;;;;;;;;6127183;23;20840;-85
2023/02/24 06:54:41;;;;;;;7.55;1.83;;;;;;;;;;6127955;23;20863;-84
2023/02/24 06:57:11;;;;;;;8.70;1.90;;;;;;;;;;6151368;23;20386;-85
2023/02/24 06:59:44;;;;;;;9.27;2.10;;;;;;;;;;6126847;23;20387;-85
2023/02/24 07:02:17;;;;;;;10.43;2.20;;;;;;;;;;6127271;23;21180;-84
2023/02/24 07:04:46;;;;;;;9.27;1.80;;;;;;;;;;6125925;23;20405;-84
2023/02/24 07:07:16;;;;;;;10.80;2.20;;;;;;;;;;6126088;23;20386;-85
2023/02/24 07:09:46;;;;;;;8.95;1.95;;;;;;;;;;6127614;23;20389;-85
2023/02/24 07:12:20;;;;;;;11.27;2.00;;;;;;;;;;6127804;23;20375;-84
2023/02/24 07:14:53;;;;;;;10.75;2.30;;;;;;;;;;6127648;23;20394;-85
2023/02/24 07:17:26;;;;;;;11.55;2.50;;;;;;;;;;6126494;23;20394;-84
2023/02/24 07:20:09;;;;;;;11.50;2.80;;;;;;;;;;6158215;23;20383;-84
2023/02/24 07:22:37;;;;;;;10.85;2.50;;;;;;;;;;6125343;23;20394;-84
2023/02/24 07:25:29;;;;;;;7.18;2.05;;;;;;;;;;6161932;23;20405;-83
2023/02/24 07:28:03;;;;;;;7.78;2.38;;;;;;;;;;6126381;23;20390;-84
2023/02/24 07:30:39;;;;;;;10.87;3.07;;;;;;;;;;6162171;23;20836;-84
2023/02/24 07:33:07;;;;;;;9.63;2.90;;;;;;;;;;6149321;23;20827;-84
2023/02/24 07:35:41;;;;;;;11.77;3.63;;;;;;;;;;6124034;23;20448;-83
2023/02/24 07:38:16;;;;;;;8.27;3.40;;;;;;;;;;6160900;23;20466;-83
2023/02/24 07:40:49;;;;;;;13.38;3.53;;;;;;;;;;6159415;23;20371;-83
2023/02/24 07:43:18;;;;;;;9.38;3.92;;;;;;;;;;6146769;23;20387;-84
2023/02/24 07:45:51;;;;;;;11.50;3.90;;;;;;;;;;6119712;23;20922;-84
2023/02/24 07:48:20;;;;;;;10.32;4.20;;;;;;;;;;6144309;23;20682;-84
2023/02/24 07:50:53;;;;;;;11.90;4.20;;;;;;;;;;6120171;23;20390;-85
2023/02/24 07:53:21;;;;;;;8.60;4.13;;;;;;;;;;6120104;23;20379;-84
2023/02/24 07:55:54;;;;;;;10.07;4.00;;;;;;;;;;6159430;23;20375;-84
2023/02/24 07:58:23;;;;;;;10.63;4.10;;;;;;;;;;6126248;23;20393;-85
2023/02/24 08:01:07;;;;;;;11.35;4.10;;;;;;;;;;6162675;23;21043;-85
2023/02/24 08:03:40;;;;;;;11.90;4.10;;;;;;;;;;6126041;23;20410;-85
2023/02/24 08:06:14;;;;;;;12.85;4.50;;;;;;;;;;6153041;23;20401;-85
2023/02/24 08:08:57;;;;;;;9.43;4.03;;;;;;;;;;6126131;23;20409;-86
2023/02/24 08:11:26;;;;;;;11.05;4.13;;;;;;;;;;6162676;23;20366;-86
2023/02/24 08:14:01;;;;;;;9.65;3.90;;;;;;;;;;6160769;23;20824;-86
2023/02/24 08:16:38;;;;;;;10.35;4.32;;;;;;;;;;6152220;23;20363;-86
2023/02/24 08:19:06;;;;;;;8.82;3.80;;;;;;;;;;6121832;23;20394;-86
2023/02/24 08:21:46;;;;;;;10.05;4.05;;;;;;;;;;6125097;23;20394;-86
2023/02/24 08:24:22;;;;;;;8.68;3.65;;;;;;;;;;6161959;23;20386;-86
2023/02/24 08:27:03;;;;;;;7.97;3.80;;;;;;;;;;6151241;23;20836;-85
2023/02/24 08:29:38;;;;;;;8.65;3.67;;;;;;;;;;6100602;23;20387;-86
2023/02/24 08:32:08;;;;;;;8.88;3.95;;;;;;;;;;6140096;23;20382;-85
2023/02/24 08:34:43;;;;;;;9.10;3.97;;;;;;;;;;6145793;23;20386;-85
2023/02/24 08:37:14;;;;;;;9.02;3.92;;;;;;;;;;6104082;23;20410;-86
2023/02/24 08:39:52;;;;;;;9.32;3.78;;;;;;;;;;6142069;23;20382;-85
2023/02/24 08:42:29;;;;;;;9.38;3.72;;;;;;;;;;6107923;23;20986;-86
2023/02/24 08:44:59;;;;;;;8.88;3.53;;;;;;;;;;6107417;23;20725;-86
2023/02/24 08:47:29;;;;;;;10.25;4.05;;;;;;;;;;6134171;23;20401;-86
2023/02/24 08:49:59;;;;;;;8.13;3.83;;;;;;;;;;6112206;23;20390;-87
2023/02/24 08:52:28;;;;;;;8.93;3.90;;;;;;;;;;6133080;23;20374;-83
2023/02/24 08:55:09;;;;;;;7.50;3.95;;;;;;;;;;6107511;23;20397;-86
2023/02/24 08:57:50;;;;;;;7.90;3.78;;;;;;;;;;6133901;23;21298;-85
2023/02/24 09:00:41;;;;;;;8.23;3.75;;;;;;;;;;6107358;23;20708;-85
2023/02/24 09:03:15;;;;;;;8.93;3.70;;;;;;;;;;6119547;23;20394;-84
2023/02/24 09:05:49;;;;;;;8.07;3.42;;;;;;;;;;6143211;23;20390;-85
2023/02/24 09:08:23;;;;;;;7.13;3.25;;;;;;;;;;6143731;23;20393;-86
2023/02/24 09:10:50;;;;;;;8.10;3.13;;;;;;;;;;6110203;23;20391;-85
2023/02/24 09:13:31;;;;;;;8.18;3.10;;;;;;;;;;6113979;23;20389;-85
2023/02/24 09:16:04;;;;;;;7.43;3.28;;;;;;;;;;6134160;23;21092;-84
2023/02/24 09:18:38;;;;;;;7.15;3.20;;;;;;;;;;6113416;23;20382;-86
2023/02/24 09:24:08;;;;;;;7.05;3.20;;;;;;;;;;6108292;23;20387;-85
2023/02/24 09:26:43;;;;;;;7.82;3.05;;;;;;;;;;6148346;23;20387;-85
2023/02/24 09:32:06;;;;;;;7.60;3.08;;;;;;;;;;6111018;23;20382;-83
2023/02/24 09:34:43;;;;;;;6.47;3.22;;;;;;;;;;6112674;23;20379;-85
2023/02/24 09:37:24;;;;;;;6.20;2.92;;;;;;;;;;6138216;23;20389;-84
2023/02/24 09:42:47;;;;;;;7.07;3.25;;;;;;;;;;6140019;23;20970;-85
2023/02/24 09:45:31;;;;;;;7.75;2.95;;;;;;;;;;6117589;23;20895;-86
2023/02/24 09:48:12;;;;;;;6.93;3.58;;;;;;;;;;6137645;23;20389;-87
2023/02/24 09:50:53;;;;;;;5.40;3.10;;;;;;;;;;6109615;23;20387;-85
2023/02/24 09:53:28;;;;;;;6.28;3.30;;;;;;;;;;6136962;23;20377;-85
2023/02/24 09:56:02;;;;;;;6.25;3.20;;;;;;;;;;6111089;23;20382;-85
2023/02/24 09:58:36;;;;;;;5.88;3.30;;;;;;;;;;6145242;23;20365;-85
2023/02/24 10:01:20;;;;;;;6.28;3.60;;;;;;;;;;6113451;23;20383;-85
2023/02/24 10:03:52;;;;;;;6.97;3.72;;;;;;;;;;6136542;23;20397;-86
2023/02/24 10:06:34;;;;;;;6.55;3.78;;;;;;;;;;6134203;23;20386;-86
2023/02/24 10:09:12;;;;;;;7.50;4.05;;;;;;;;;;6112317;23;20391;-85
2023/02/24 10:11:53;;;;;;;7.30;3.88;;;;;;;;;;6110764;23;20386;-86
2023/02/24 10:14:25;;;;;;;8.52;4.30;;;;;;;;;;6146883;23;20374;-85
2023/02/24 10:19:55;;;;;;;7.50;4.40;;;;;;;;;;6140155;23;20370;-85
2023/02/24 10:22:27;;;;;;;7.43;4.27;;;;;;;;;;6144657;23;20370;-85
2023/02/24 10:25:09;;;;;;;7.22;4.38;;;;;;;;;;6144075;23;20704;-85
2023/02/24 10:27:41;;;;;;;8.20;4.35;;;;;;;;;;6145515;23;20375;-84
2023/02/24 10:30:19;;;;;;;9.93;4.50;;;;;;;;;;6150723;23;20398;-85
2023/02/24 10:32:57;;;;;;;8.70;4.68;;;;;;;;;;6146376;23;20383;-85
2023/02/24 10:35:32;;;;;;;8.57;4.75;;;;;;;;;;6134938;23;20397;-84
2023/02/24 10:38:04;;;;;;;7.80;4.35;;;;;;;;;;6104561;23;20383;-84
2023/02/24 10:40:45;;;;;;;7.63;4.47;;;;;;;;;;6131016;23;20460;-86
2023/02/24 10:43:19;;;;;;;7.47;4.43;;;;;;;;;;6142397;23;20701;-85
2023/02/24 10:46:04;;;;;;;9.07;5.13;;;;;;;;;;6134910;23;20697;-85
2023/02/24 10:48:37;;;;;;;8.93;4.87;;;;;;;;;;6113817;23;20443;-85
2023/02/24 10:51:18;;;;;;;9.23;5.00;;;;;;;;;;6143637;23;21257;-85
2023/02/24 10:54:08;;;;;;;9.45;5.10;;;;;;;;;;6113736;23;20390;-85
2023/02/24 10:56:43;;;;;;;7.57;4.65;;;;;;;;;;6144797;23;20382;-85
2023/02/24 10:59:39;;;;;;;8.73;5.00;;;;;;;;;;6108527;23;20387;-85
2023/02/24 11:02:23;;;;;;;8.65;4.65;;;;;;;;;;6115917;23;20390;-84
2023/02/24 11:05:23;;;;;;;9.30;4.82;;;;;;;;;;6148006;23;20378;-86
2023/02/24 11:08:14;;;;;;;9.07;4.80;;;;;;;;;;6107924;23;20399;-86
2023/02/24 11:10:52;;;;;;;9.45;4.78;;;;;;;;;;6145918;23;20371;-85
2023/02/24 11:18:54;;;;;;;9.85;4.97;;;;;;;;;;6109858;23;20400;-85
2023/02/24 11:21:23;;;;;;;8.80;4.88;;;;;;;;;;6109456;23;20443;-85
2023/02/24 11:24:01;;;;;;;9.90;5.30;;;;;;;;;;6150241;23;20850;-85
2023/02/24 11:26:34;;;;;;;9.05;5.00;;;;;;;;;;6107601;23;20392;-86
2023/02/24 11:29:09;;;;;;;10.23;5.30;;;;;;;;;;6108811;23;20391;-85
2023/02/24 11:32:00;;;;;;;8.63;4.95;;;;;;;;;;6149679;23;21220;-85
2023/02/24 11:34:37;;;;;;;9.40;5.10;;;;;;;;;;6105520;23;20401;-86
2023/02/24 11:37:13;;;;;;;10.82;5.20;;;;;;;;;;6109189;23;20398;-85
2023/02/24 11:39:52;;;;;;;8.90;4.63;;;;;;;;;;6106025;23;20667;-84
2023/02/24 11:42:23;;;;;;;9.05;5.22;;;;;;;;;;6116063;23;20386;-84
2023/02/24 11:44:52;;;;;;;10.30;5.30;;;;;;;;;;6137670;23;20370;-85
2023/02/24 11:47:22;;;;;;;10.65;5.85;;;;;;;;;;6113125;23;21150;-86
2023/02/24 11:50:00;;;;;;;10.60;5.55;;;;;;;;;;6131239;23;20397;-87
2023/02/24 11:52:31;;;;;;;10.77;5.78;;;;;;;;;;6108934;23;20387;-87
2023/02/24 11:55:02;;;;;;;10.07;5.60;;;;;;;;;;6141041;23;20370;-86
2023/02/24 11:57:38;;;;;;;11.55;5.30;;;;;;;;;;6132643;23;20708;-85
2023/02/24 12:00:12;;;;;;;11.00;6.05;;;;;;;;;;6112516;23;20393;-85
2023/02/24 12:02:45;;;;;;;11.90;6.45;;;;;;;;;;6106927;23;20402;-84
2023/02/24 12:05:20;;;;;;;13.95;6.30;;;;;;;;;;6143787;23;20390;-86
2023/02/24 12:07:49;;;;;;;12.07;6.55;;;;;;;;;;6134926;23;20367;-87
2023/02/24 12:10:25;;;;;;;13.88;6.93;;;;;;;;;;6113672;23;20398;-85
2023/02/24 12:12:58;;;;;;;13.50;6.93;;;;;;;;;;6107260;23;20383;-84
2023/02/24 12:15:29;;;;;;;12.75;7.22;;;;;;;;;;6112198;23;20390;-84
2023/02/24 12:18:04;;;;;;;13.23;6.72;;;;;;;;;;6145276;23;20390;-85
2023/02/24 12:20:34;;;;;;;12.77;7.25;;;;;;;;;;6133425;23;20397;-84
2023/02/24 12:23:14;;;;;;;11.23;6.75;;;;;;;;;;6140822;23;20436;-84
2023/02/24 12:25:57;;;;;;;13.70;7.10;;;;;;;;;;6144588;23;20383;-84
2023/02/24 12:28:36;;;;;;;15.70;7.15;;;;;;;;;;6112611;23;20379;-85
2023/02/24 12:31:13;;;;;;;11.40;7.20;;;;;;;;;;6145190;23;21146;-85
2023/02/24 12:33:51;;;;;;;15.37;7.63;;;;;;;;;;6145220;23;20378;-85
2023/02/24 12:36:24;;;;;;;14.43;7.60;;;;;;;;;;6144780;23;20359;-85
2023/02/24 12:39:00;;;;;;;15.35;7.72;;;;;;;;;;6109626;23;20862;-85
2023/02/24 12:41:33;;;;;;;13.50;7.43;;;;;;;;;;6148042;23;20378;-85
2023/02/24 12:44:13;;;;;;;16.85;7.53;;;;;;;;;;6107037;23;20391;-87
2023/02/24 12:46:43;;;;;;;15.10;7.88;;;;;;;;;;6108348;23;20434;-84
2023/02/24 12:49:19;;;;;;;16.23;8.18;;;;;;;;;;6133863;23;20394;-84
2023/02/24 12:52:00;;;;;;;13.52;7.28;;;;;;;;;;6135820;23;20406;-85
2023/02/24 12:54:38;;;;;;;16.95;7.75;;;;;;;;;;6133459;23;20393;-84
2023/02/24 12:57:11;;;;;;;15.93;7.60;;;;;;;;;;6144894;23;20378;-86
2023/02/24 12:59:44;;;;;;;13.25;7.45;;;;;;;;;;6111799;23;20383;-84
2023/02/24 13:02:23;;;;;;;14.98;7.32;;;;;;;;;;6147433;23;20378;-85
2023/02/24 13:04:58;;;;;;;15.55;7.35;;;;;;;;;;6146190;23;20375;-85
2023/02/24 13:07:41;;;;;;;15.75;7.40;;;;;;;;;;6129510;23;20427;-84
2023/02/24 13:10:18;;;;;;;14.85;7.07;;;;;;;;;;6143624;23;20941;-84
2023/02/24 13:12:54;;;;;;;14.77;7.07;;;;;;;;;;6143900;23;20382;-84
2023/02/24 13:15:30;;;;;;;15.57;7.47;;;;;;;;;;6109850;23;20578;-84
2023/02/24 13:18:03;;;;;;;14.75;7.25;;;;;;;;;;6105890;23;20393;-84
2023/02/24 13:20:36;;;;;;;13.87;7.53;;;;;;;;;;6115228;23;20478;-85
2023/02/24 13:23:18;;;;;;;18.25;8.20;;;;;;;;;;6137045;23;20398;-85
2023/02/24 13:25:52;;;;;;;15.43;7.38;;;;;;;;;;6122523;23;20391;-85
2023/02/24 13:28:24;;;;;;;15.65;8.00;;;;;;;;;;6136195;23;20371;-84
2023/02/24 13:30:58;;;;;;;15.80;8.20;;;;;;;;;;6136419;23;20740;-84
2023/02/24 13:33:29;;;;;;;17.40;8.10;;;;;;;;;;6115145;23;20394;-84
2023/02/24 13:36:13;;;;;;;16.02;8.02;;;;;;;;;;6136741;23;20398;-83
2023/02/24 13:38:47;;;;;;;20.23;8.00;;;;;;;;;;6150037;23;20378;-84
2023/02/24 13:41:22;;;;;;;19.63;9.53;;;;;;;;;;6144937;23;20409;-84
2023/02/24 13:43:55;;;;;;;16.73;9.10;;;;;;;;;;6134935;23;20371;-84
2023/02/24 13:46:22;;;;;;;18.67;9.30;;;;;;;;;;6147225;23;21247;-85
2023/02/24 13:48:59;;;;;;;22.50;9.63;;;;;;;;;;6106617;23;20860;-84
2023/02/24 13:51:58;;;;;;;18.17;9.07;;;;;;;;;;6130926;23;21297;-85
2023/02/24 13:54:41;;;;;;;22.17;9.82;;;;;;;;;;6096174;23;20391;-85
2023/02/24 13:57:25;;;;;;;19.13;9.27;;;;;;;;;;6112414;23;20389;-85
2023/02/24 14:00:01;;;;;;;20.55;9.50;;;;;;;;;;6110331;23;20394;-85
2023/02/24 14:02:41;;;;;;;23.33;9.98;;;;;;;;;;6146257;23;20780;-85
2023/02/24 14:05:21;;;;;;;20.95;10.23;;;;;;;;;;6106128;23;20379;-84
2023/02/24 14:07:54;;;;;;;25.77;11.02;;;;;;;;;;6130850;23;20391;-85
2023/02/24 14:10:24;;;;;;;28.98;10.75;;;;;;;;;;6135316;23;20429;-84
2023/02/24 14:13:00;;;;;;;21.70;10.30;;;;;;;;;;6134088;23;20398;-84
2023/02/24 14:15:29;;;;;;;21.10;9.75;;;;;;;;;;6134231;23;20386;-84
2023/02/24 14:17:58;;;;;;;20.83;9.70;;;;;;;;;;6106404;23;20379;-85
2023/02/24 14:20:27;;;;;;;20.77;9.80;;;;;;;;;;6106130;23;20385;-85
2023/02/24 14:23:00;;;;;;;20.52;9.02;;;;;;;;;;6141776;23;20382;-84
2023/02/24 14:25:35;;;;;;;20.30;9.10;;;;;;;;;;6143202;23;20410;-84
2023/02/24 14:28:18;;;;;;;19.15;9.45;;;;;;;;;;6074555;23;20775;-84
2023/02/24 14:30:51;;;;;;;15.05;7.70;;;;;;;;;;6142680;23;20966;-85
2023/02/24 14:33:24;;;;;;;19.40;7.97;;;;;;;;;;6109150;23;20487;-83
2023/02/24 14:35:51;;;;;;;18.30;7.40;;;;;;;;;;6151985;23;21121;-85
2023/02/24 14:38:29;;;;;;;16.40;6.70;;;;;;;;;;6109037;23;20382;-85
2023/02/24 14:41:04;;;;;;;14.02;6.63;;;;;;;;;;6137800;23;20382;-86
2023/02/24 14:43:40;;;;;;;15.50;5.80;;;;;;;;;;6105784;23;20861;-84
2023/02/24 14:46:09;;;;;;;13.48;5.97;;;;;;;;;;6109361;23;20394;-85
2023/02/24 14:48:37;;;;;;;16.02;5.90;;;;;;;;;;6106362;23;20387;-84
2023/02/24 14:51:08;;;;;;;18.02;5.60;;;;;;;;;;6110989;23;20387;-85
2023/02/24 14:53:37;;;;;;;15.15;5.30;;;;;;;;;;6110081;23;20390;-85
2023/02/24 14:56:05;;;;;;;15.05;5.22;;;;;;;;;;6142213;23;20374;-85
2023/02/24 14:58:42;;;;;;;11.87;4.70;;;;;;;;;;6111571;23;20477;-85
2023/02/24 15:01:16;;;;;;;15.32;4.55;;;;;;;;;;6139038;23;20386;-84
2023/02/24 15:03:51;;;;;;;12.35;4.10;;;;;;;;;;6143985;23;20383;-85
2023/02/24 15:06:26;;;;;;;14.43;3.70;;;;;;;;;;6104930;23;20386;-84
2023/02/24 15:09:00;;;;;;;15.70;3.92;;;;;;;;;;6110534;23;20397;-85
2023/02/24 15:11:35;;;;;;;17.63;3.20;;;;;;;;;;6133632;23;20387;-82
2023/02/24 15:14:05;;;;;;;14.05;2.97;;;;;;;;;;6143511;23;20374;-84
2023/02/24 15:16:41;;;;;;;10.85;2.63;;;;;;;;;;6111753;23;20417;-84
2023/02/24 15:19:21;;;;;;;14.55;2.65;;;;;;;;;;6150653;23;20367;-84
2023/02/24 15:21:54;;;;;;;12.52;2.78;;;;;;;;;;6137827;23;20382;-84
2023/02/24 15:24:28;;;;;;;12.55;2.72;;;;;;;;;;6111218;23;20391;-86
2023/02/24 15:26:57;;;;;;;13.75;2.30;;;;;;;;;;6137212;23;20379;-84
2023/02/24 15:29:26;;;;;;;12.20;2.42;;;;;;;;;;6089507;23;20391;-85
2023/02/24 15:32:05;;;;;;;15.10;2.45;;;;;;;;;;6110503;23;20720;-85
2023/02/24 15:34:38;;;;;;;11.40;1.83;;;;;;;;;;6146619;23;20367;-84
2023/02/24 15:37:13;;;;;;;14.48;2.00;;;;;;;;;;6114149;23;21277;-85
2023/02/24 15:39:42;;;;;;;15.40;1.95;;;;;;;;;;6110764;23;20398;-85
2023/02/24 15:42:20;;;;;;;13.80;1.60;;;;;;;;;;6145193;23;20375;-84